Thunder radar more information blitzortung!


Radar de pluja more information rain snow radar


Visita la nostra xarxa de llocs de meteo:

Template documentation
and downloads

And another site



No particular awareness of the weather is required.    There are no Weather-warnings

Pagina Historial Weather Underground text

Diari Resum Novembre 7, 2017 Unitats:  Tant    Imperial   Mètric
« Previous Dia
SegĂźent Dia »
Diari Setmana Mensual Anual Personalitzada
  Maxima: Minima: Media:
Temperatura: TemperatureC °F /  -17.8 °C 3.0 °F /  -16.1 °C 8.9 °F /  -12.8 °C
Punt de rosada: DewpointC °F /  -17.8 °C -10.7 °F /  -23.7 °C -5.2 °F /  -20.7 °C
Humitat: Humidity % 29 % 37 %
Wind Speed: WindSpeedKMH mph /  0 km/h - 4.8 mph /  7.7 km/h
RĂ fegues de vent: WindSpeedGustKMH mph /  0 km/h - -
Vent:- - SSW
Pression baro: PressurehPa in /  0 hPa 1015.8 in /  34395 hPa -
Precipitacions: 0.0 in /  0 mm    
Historical Graphs
 
 
Dades de taula per Novembre 7, 2017
Temps Temperatura Punt de rosada Pression baro Vent Wind Speed RĂ fegues de vent Humitat Rainfall Rate (Hourly)
TemperatureC °F /  -17.8 °C DewpointC °F /  -17.8 °C PressurehPa in /  0 hPa Calm     Humidity % HourlyPrecipMM in /  0 mm
00:03 7.0 °F /  -13.9 °C -9.8 °F /  -23.2 °C 1015.8 in /  34395 hPa SSW 1.9 mph /  3.1 km/h   29 % 0.0 in /  0 mm
00:05 3.4 °F /  -15.9 °C -10.7 °F /  -23.7 °C 1017.8 in /  34462.7 hPa WSW 1.6 mph /  2.6 km/h 3.2 mph /  5.1 km/h 35 % 0.0 in /  0 mm
00:08 7.0 °F /  -13.9 °C -9.8 °F /  -23.2 °C 1016.8 in /  34428.8 hPa SSW 7.4 mph /  11.9 km/h 7.4 mph /  11.9 km/h 29 % 0.0 in /  0 mm
00:15 3.5 °F /  -15.8 °C -10.2 °F /  -23.4 °C 1017.8 in /  34462.7 hPa Calm   1.6 mph /  2.6 km/h 36 % 0.0 in /  0 mm
00:25 3.4 °F /  -15.9 °C -10.3 °F /  -23.5 °C 1016.8 in /  34428.8 hPa Calm   1.6 mph /  2.6 km/h 36 % 0.0 in /  0 mm
00:45 3.2 °F /  -16 °C -10.1 °F /  -23.4 °C 1017.8 in /  34462.7 hPa WSW 1.6 mph /  2.6 km/h 4.8 mph /  7.7 km/h 37 % 0.0 in /  0 mm
00:55 3.3 °F /  -15.9 °C -10.1 °F /  -23.4 °C 1017.8 in /  34462.7 hPa Calm   3.2 mph /  5.1 km/h 37 % 0.0 in /  0 mm
01:05 3.2 °F /  -16 °C -9.8 °F /  -23.2 °C 1017.8 in /  34462.7 hPa WNW 1.6 mph /  2.6 km/h 3.2 mph /  5.1 km/h 38 % 0.0 in /  0 mm
01:15 3.3 °F /  -15.9 °C -9.4 °F /  -23 °C 1017.8 in /  34462.7 hPa Calm   1.6 mph /  2.6 km/h 39 % 0.0 in /  0 mm
01:25 3.2 °F /  -16 °C -9.4 °F /  -23 °C 1017.8 in /  34462.7 hPa Calm   1.6 mph /  2.6 km/h 39 % 0.0 in /  0 mm
01:45 3.0 °F /  -16.1 °C -9.0 °F /  -22.8 °C 1017.8 in /  34462.7 hPa West 1.6 mph /  2.6 km/h 3.2 mph /  5.1 km/h 41 % 0.0 in /  0 mm
01:55 3.3 °F /  -15.9 °C -8.7 °F /  -22.6 °C 1017.8 in /  34462.7 hPa Calm   3.2 mph /  5.1 km/h 41 % 0.0 in /  0 mm
02:05 4.1 °F /  -15.5 °C -7.7 °F /  -22.1 °C 1017.8 in /  34462.7 hPa WNW 1.6 mph /  2.6 km/h 3.2 mph /  5.1 km/h 42 % 0.0 in /  0 mm
02:15 4.6 °F /  -15.2 °C -7.2 °F /  -21.8 °C 1018.8 in /  34496.6 hPa NNE 1.6 mph /  2.6 km/h 1.6 mph /  2.6 km/h 42 % 0.0 in /  0 mm
02:25 4.8 °F /  -15.1 °C -6.7 °F /  -21.5 °C 1018.8 in /  34496.6 hPa Calm   4.8 mph /  7.7 km/h 43 % 0.0 in /  0 mm
02:35 5.2 °F /  -14.9 °C -6.4 °F /  -21.3 °C 1018.8 in /  34496.6 hPa North 1.6 mph /  2.6 km/h 3.2 mph /  5.1 km/h 43 % 0.0 in /  0 mm
02:45 5.9 °F /  -14.5 °C -5.7 °F /  -20.9 °C 1018.8 in /  34496.6 hPa North 1.6 mph /  2.6 km/h 4.8 mph /  7.7 km/h 43 % 0.0 in /  0 mm
02:55 6.0 °F /  -14.4 °C -5.7 °F /  -20.9 °C 1018.8 in /  34496.6 hPa North 1.6 mph /  2.6 km/h 4.8 mph /  7.7 km/h 43 % 0.0 in /  0 mm
03:05 6.3 °F /  -14.3 °C -5.4 °F /  -20.8 °C 1018.8 in /  34496.6 hPa North 3.2 mph /  5.1 km/h 4.8 mph /  7.7 km/h 43 % 0.0 in /  0 mm
03:15 6.0 °F /  -14.4 °C -5.7 °F /  -20.9 °C 1018.8 in /  34496.6 hPa NE 4.8 mph /  7.7 km/h 8.0 mph /  12.9 km/h 43 % 0.0 in /  0 mm
03:25 6.7 °F /  -14.1 °C -4.7 °F /  -20.4 °C 1018.8 in /  34496.6 hPa NE 1.6 mph /  2.6 km/h 3.2 mph /  5.1 km/h 44 % 0.0 in /  0 mm
03:35 6.8 °F /  -14 °C -4.6 °F /  -20.3 °C 1018.8 in /  34496.6 hPa NE 3.2 mph /  5.1 km/h 4.8 mph /  7.7 km/h 44 % 0.0 in /  0 mm
03:45 7.0 °F /  -13.9 °C -4.4 °F /  -20.2 °C 1018.8 in /  34496.6 hPa NNE 3.2 mph /  5.1 km/h 8.0 mph /  12.9 km/h 44 % 0.0 in /  0 mm
03:55 7.4 °F /  -13.7 °C -4.1 °F /  -20.1 °C 1018.8 in /  34496.6 hPa Calm   6.4 mph /  10.3 km/h 44 % 0.0 in /  0 mm
04:05 7.9 °F /  -13.4 °C -3.6 °F /  -19.8 °C 1018.8 in /  34496.6 hPa NNE 3.2 mph /  5.1 km/h 4.8 mph /  7.7 km/h 44 % 0.0 in /  0 mm
04:15 8.4 °F /  -13.1 °C -3.2 °F /  -19.6 °C 1018.8 in /  34496.6 hPa NE 1.6 mph /  2.6 km/h 4.8 mph /  7.7 km/h 44 % 0.0 in /  0 mm
10:17 8.5 °F /  -13.1 °C -3.4 °F /  -19.7 °C 1018.8 in /  34496.6 hPa North 3.7 mph /  6 km/h 3.7 mph /  6 km/h 43 % 0.0 in /  0 mm
10:18 8.5 °F /  -13.1 °C -3.4 °F /  -19.7 °C 1018.8 in /  34496.6 hPa NNE 3.7 mph /  6 km/h 3.7 mph /  6 km/h 43 % 0.0 in /  0 mm
10:19 8.6 °F /  -13 °C -3.3 °F /  -19.6 °C 1018.8 in /  34496.6 hPa NW 5.6 mph /  9 km/h 5.6 mph /  9 km/h 43 % 0.0 in /  0 mm
10:24 9.0 °F /  -12.8 °C -2.9 °F /  -19.4 °C 1017.8 in /  34462.7 hPa WSW 9.3 mph /  15 km/h 9.3 mph /  15 km/h 43 % 0.0 in /  0 mm
10:29 9.2 °F /  -12.7 °C -3.1 °F /  -19.5 °C 1017.8 in /  34462.7 hPa West 13.0 mph /  20.9 km/h 13.0 mph /  20.9 km/h 42 % 0.0 in /  0 mm
10:34 9.4 °F /  -12.6 °C -2.9 °F /  -19.4 °C 1017.8 in /  34462.7 hPa SW 13.0 mph /  20.9 km/h 13.0 mph /  20.9 km/h 42 % 0.0 in /  0 mm
10:39 9.7 °F /  -12.4 °C -2.6 °F /  -19.2 °C 1018.8 in /  34496.6 hPa West 9.3 mph /  15 km/h 9.3 mph /  15 km/h 42 % 0.0 in /  0 mm
10:44 10.0 °F /  -12.2 °C -2.7 °F /  -19.3 °C 1018.8 in /  34496.6 hPa WNW 5.6 mph /  9 km/h 5.6 mph /  9 km/h 41 % 0.0 in /  0 mm
10:49 10.1 °F /  -12.2 °C -2.6 °F /  -19.2 °C 1018.8 in /  34496.6 hPa WSW 9.5 mph /  15.3 km/h 9.5 mph /  15.3 km/h 41 % 0.0 in /  0 mm
10:54 10.3 °F /  -12.1 °C -2.7 °F /  -19.3 °C 1018.8 in /  34496.6 hPa SSW 7.4 mph /  11.9 km/h 7.4 mph /  11.9 km/h 40 % 0.0 in /  0 mm
10:59 10.4 °F /  -12 °C -2.7 °F /  -19.3 °C 1018.8 in /  34496.6 hPa West 11.1 mph /  17.9 km/h 11.1 mph /  17.9 km/h 40 % 0.0 in /  0 mm
11:04 10.3 °F /  -12.1 °C -3.4 °F /  -19.7 °C 1018.8 in /  34496.6 hPa West 14.8 mph /  23.8 km/h 14.8 mph /  23.8 km/h 38 % 0.0 in /  0 mm
11:09 10.6 °F /  -11.9 °C -3.2 °F /  -19.6 °C 1018.8 in /  34496.6 hPa WNW 7.4 mph /  11.9 km/h 7.4 mph /  11.9 km/h 38 % 0.0 in /  0 mm
11:14 10.6 °F /  -11.9 °C -3.5 °F /  -19.7 °C 1018.8 in /  34496.6 hPa WSW 11.1 mph /  17.9 km/h 11.1 mph /  17.9 km/h 37 % 0.0 in /  0 mm
11:19 10.8 °F /  -11.8 °C -3.3 °F /  -19.6 °C 1018.8 in /  34496.6 hPa WNW 9.3 mph /  15 km/h 9.3 mph /  15 km/h 37 % 0.0 in /  0 mm
11:24 10.9 °F /  -11.7 °C -3.6 °F /  -19.8 °C 1018.8 in /  34496.6 hPa SW 11.1 mph /  17.9 km/h 11.1 mph /  17.9 km/h 36 % 0.0 in /  0 mm
11:29 11.1 °F /  -11.6 °C -3.4 °F /  -19.7 °C 1018.8 in /  34496.6 hPa WSW 13.0 mph /  20.9 km/h 13.0 mph /  20.9 km/h 36 % 0.0 in /  0 mm
11:34 11.1 °F /  -11.6 °C -3.8 °F /  -19.9 °C 1018.8 in /  34496.6 hPa West 11.1 mph /  17.9 km/h 11.1 mph /  17.9 km/h 35 % 0.0 in /  0 mm
11:39 11.2 °F /  -11.6 °C -3.7 °F /  -19.8 °C 1018.8 in /  34496.6 hPa West 9.3 mph /  15 km/h 9.3 mph /  15 km/h 35 % 0.0 in /  0 mm
11:44 11.5 °F /  -11.4 °C -3.4 °F /  -19.7 °C 1018.8 in /  34496.6 hPa WSW 7.4 mph /  11.9 km/h 7.4 mph /  11.9 km/h 35 % 0.0 in /  0 mm
11:49 11.7 °F /  -11.3 °C -3.3 °F /  -19.6 °C 1018.8 in /  34496.6 hPa WSW 9.3 mph /  15 km/h 9.3 mph /  15 km/h 35 % 0.0 in /  0 mm
11:54 11.8 °F /  -11.2 °C -3.6 °F /  -19.8 °C 1018.8 in /  34496.6 hPa WNW 5.6 mph /  9 km/h 5.6 mph /  9 km/h 34 % 0.0 in /  0 mm
11:59 11.8 °F /  -11.2 °C -3.6 °F /  -19.8 °C 1018.8 in /  34496.6 hPa NW 11.1 mph /  17.9 km/h 11.1 mph /  17.9 km/h 34 % 0.0 in /  0 mm
12:04 12.2 °F /  -11 °C -3.2 °F /  -19.6 °C 1018.8 in /  34496.6 hPa ESE 9.3 mph /  15 km/h 9.3 mph /  15 km/h 34 % 0.0 in /  0 mm
12:09 12.4 °F /  -10.9 °C -3.1 °F /  -19.5 °C 1018.8 in /  34496.6 hPa West 11.1 mph /  17.9 km/h 11.1 mph /  17.9 km/h 34 % 0.0 in /  0 mm
12:14 12.5 °F /  -10.8 °C -2.9 °F /  -19.4 °C 1018.8 in /  34496.6 hPa WSW 9.3 mph /  15 km/h 9.3 mph /  15 km/h 34 % 0.0 in /  0 mm
12:19 12.5 °F /  -10.8 °C -3.3 °F /  -19.6 °C 1018.8 in /  34496.6 hPa WSW 11.1 mph /  17.9 km/h 11.1 mph /  17.9 km/h 33 % 0.0 in /  0 mm
12:29 13.1 °F /  -10.5 °C -2.8 °F /  -19.3 °C 1018.8 in /  34496.6 hPa West 3.9 mph /  6.3 km/h 3.9 mph /  6.3 km/h 33 % 0.0 in /  0 mm
12:34 13.3 °F /  -10.4 °C -2.7 °F /  -19.3 °C 1018.8 in /  34496.6 hPa West 7.4 mph /  11.9 km/h 7.4 mph /  11.9 km/h 33 % 0.0 in /  0 mm
12:39 13.3 °F /  -10.4 °C -2.7 °F /  -19.3 °C 1017.8 in /  34462.7 hPa WNW 13.0 mph /  20.9 km/h 13.0 mph /  20.9 km/h 33 % 0.0 in /  0 mm
12:44 13.5 °F /  -10.3 °C -2.5 °F /  -19.2 °C 1017.8 in /  34462.7 hPa SSW 13.0 mph /  20.9 km/h 13.0 mph /  20.9 km/h 33 % 0.0 in /  0 mm
12:49 13.5 °F /  -10.3 °C -2.5 °F /  -19.2 °C 1017.8 in /  34462.7 hPa WNW 9.3 mph /  15 km/h 9.3 mph /  15 km/h 33 % 0.0 in /  0 mm
12:54 13.5 °F /  -10.3 °C -2.9 °F /  -19.4 °C 1017.8 in /  34462.7 hPa West 13.0 mph /  20.9 km/h 13.0 mph /  20.9 km/h 32 % 0.0 in /  0 mm
13:04 13.8 °F /  -10.1 °C -2.6 °F /  -19.2 °C 1017.8 in /  34462.7 hPa West 11.1 mph /  17.9 km/h 11.1 mph /  17.9 km/h 32 % 0.0 in /  0 mm
13:09 13.7 °F /  -10.2 °C -2.7 °F /  -19.3 °C 1017.8 in /  34462.7 hPa WSW 7.9 mph /  12.7 km/h 7.9 mph /  12.7 km/h 32 % 0.0 in /  0 mm
13:14 14.0 °F /  -10 °C -2.4 °F /  -19.1 °C 1017.8 in /  34462.7 hPa South 10.0 mph /  16.1 km/h 10.0 mph /  16.1 km/h 32 % 0.0 in /  0 mm
13:19 13.7 °F /  -10.2 °C -3.2 °F /  -19.6 °C 1017.8 in /  34462.7 hPa West 14.8 mph /  23.8 km/h 14.8 mph /  23.8 km/h 31 % 0.0 in /  0 mm
13:24 13.6 °F /  -10.2 °C -3.2 °F /  -19.6 °C 1017.8 in /  34462.7 hPa WSW 9.3 mph /  15 km/h 9.3 mph /  15 km/h 31 % 0.0 in /  0 mm
13:29 13.8 °F /  -10.1 °C -3.5 °F /  -19.7 °C 1017.8 in /  34462.7 hPa West 13.0 mph /  20.9 km/h 13.0 mph /  20.9 km/h 30 % 0.0 in /  0 mm
13:34 13.6 °F /  -10.2 °C -3.7 °F /  -19.8 °C 1017.8 in /  34462.7 hPa North 11.1 mph /  17.9 km/h 11.1 mph /  17.9 km/h 30 % 0.0 in /  0 mm
13:39 13.6 °F /  -10.2 °C -3.7 °F /  -19.8 °C 1017.8 in /  34462.7 hPa South 11.9 mph /  19.2 km/h 11.9 mph /  19.2 km/h 30 % 0.0 in /  0 mm
13:44 13.6 °F /  -10.2 °C -3.7 °F /  -19.8 °C 1017.8 in /  34462.7 hPa WSW 11.4 mph /  18.3 km/h 11.4 mph /  18.3 km/h 30 % 0.0 in /  0 mm
13:49 13.6 °F /  -10.2 °C -3.7 °F /  -19.8 °C 1017.8 in /  34462.7 hPa West 14.8 mph /  23.8 km/h 14.8 mph /  23.8 km/h 30 % 0.0 in /  0 mm
13:54 13.5 °F /  -10.3 °C -4.2 °F /  -20.1 °C 1017.8 in /  34462.7 hPa West 9.3 mph /  15 km/h 9.3 mph /  15 km/h 29 % 0.0 in /  0 mm
13:59 13.5 °F /  -10.3 °C -4.2 °F /  -20.1 °C 1017.8 in /  34462.7 hPa West 9.3 mph /  15 km/h 9.3 mph /  15 km/h 29 % 0.0 in /  0 mm
14:04 13.6 °F /  -10.2 °C -4.1 °F /  -20.1 °C 1017.8 in /  34462.7 hPa SW 14.8 mph /  23.8 km/h 14.8 mph /  23.8 km/h 29 % 0.0 in /  0 mm
14:09 13.7 °F /  -10.2 °C -3.6 °F /  -19.8 °C 1016.8 in /  34428.8 hPa SW 13.0 mph /  20.9 km/h 13.0 mph /  20.9 km/h 30 % 0.0 in /  0 mm
14:14 13.8 °F /  -10.1 °C -3.5 °F /  -19.7 °C 1016.8 in /  34428.8 hPa West 7.4 mph /  11.9 km/h 7.4 mph /  11.9 km/h 30 % 0.0 in /  0 mm
14:19 13.9 °F /  -10.1 °C -3.4 °F /  -19.7 °C 1016.8 in /  34428.8 hPa SW 11.1 mph /  17.9 km/h 11.1 mph /  17.9 km/h 30 % 0.0 in /  0 mm
14:24 14.0 °F /  -10 °C -3.3 °F /  -19.6 °C 1017.8 in /  34462.7 hPa West 13.0 mph /  20.9 km/h 13.0 mph /  20.9 km/h 30 % 0.0 in /  0 mm
14:34 14.0 °F /  -10 °C -3.3 °F /  -19.6 °C 1017.8 in /  34462.7 hPa WSW 13.0 mph /  20.9 km/h 13.0 mph /  20.9 km/h 30 % 0.0 in /  0 mm
14:39 14.3 °F /  -9.8 °C -3.1 °F /  -19.5 °C 1017.8 in /  34462.7 hPa West 9.3 mph /  15 km/h 9.3 mph /  15 km/h 30 % 0.0 in /  0 mm
14:44 14.2 °F /  -9.9 °C -3.2 °F /  -19.6 °C 1017.8 in /  34462.7 hPa WSW 13.0 mph /  20.9 km/h 13.0 mph /  20.9 km/h 30 % 0.0 in /  0 mm
14:49 14.2 °F /  -9.9 °C -3.2 °F /  -19.6 °C 1017.8 in /  34462.7 hPa West 11.1 mph /  17.9 km/h 11.1 mph /  17.9 km/h 30 % 0.0 in /  0 mm
14:54 14.3 °F /  -9.8 °C -3.1 °F /  -19.5 °C 1017.8 in /  34462.7 hPa WSW 11.1 mph /  17.9 km/h 11.1 mph /  17.9 km/h 30 % 0.0 in /  0 mm
14:59 14.4 °F /  -9.8 °C -3.0 °F /  -19.4 °C 1017.8 in /  34462.7 hPa NW 5.8 mph /  9.3 km/h 5.8 mph /  9.3 km/h 30 % 0.0 in /  0 mm
15:04 14.5 °F /  -9.7 °C -2.9 °F /  -19.4 °C 1017.8 in /  34462.7 hPa West 9.3 mph /  15 km/h 9.3 mph /  15 km/h 30 % 0.0 in /  0 mm
15:09 14.5 °F /  -9.7 °C -2.9 °F /  -19.4 °C 1017.8 in /  34462.7 hPa SW 7.4 mph /  11.9 km/h 7.4 mph /  11.9 km/h 30 % 0.0 in /  0 mm
15:14 14.6 °F /  -9.7 °C -2.8 °F /  -19.3 °C 1017.8 in /  34462.7 hPa ENE 7.4 mph /  11.9 km/h 7.4 mph /  11.9 km/h 30 % 0.0 in /  0 mm
15:19 14.4 °F /  -9.8 °C -3.0 °F /  -19.4 °C 1017.8 in /  34462.7 hPa NW 5.6 mph /  9 km/h 5.6 mph /  9 km/h 30 % 0.0 in /  0 mm
15:24 14.5 °F /  -9.7 °C -2.9 °F /  -19.4 °C 1017.8 in /  34462.7 hPa South 5.6 mph /  9 km/h 5.6 mph /  9 km/h 30 % 0.0 in /  0 mm
15:29 14.5 °F /  -9.7 °C -2.9 °F /  -19.4 °C 1017.8 in /  34462.7 hPa WSW 14.8 mph /  23.8 km/h 14.8 mph /  23.8 km/h 30 % 0.0 in /  0 mm
15:34 14.4 °F /  -9.8 °C -3.4 °F /  -19.7 °C 1017.8 in /  34462.7 hPa West 9.3 mph /  15 km/h 9.3 mph /  15 km/h 29 % 0.0 in /  0 mm
15:36 14.5 °F /  -9.7 °C -2.9 °F /  -19.4 °C 1016.8 in /  34428.8 hPa WSW 9.5 mph /  15.3 km/h 9.5 mph /  15.3 km/h 30 % 0.0 in /  0 mm
15:41 14.5 °F /  -9.7 °C -2.9 °F /  -19.4 °C 1016.8 in /  34428.8 hPa WSW 9.0 mph /  14.5 km/h 9.0 mph /  14.5 km/h 30 % 0.0 in /  0 mm
15:46 14.3 °F /  -9.8 °C -3.5 °F /  -19.7 °C 1016.8 in /  34428.8 hPa SW 13.0 mph /  20.9 km/h 13.0 mph /  20.9 km/h 29 % 0.0 in /  0 mm
15:51 14.4 °F /  -9.8 °C -3.4 °F /  -19.7 °C 1017.8 in /  34462.7 hPa West 9.0 mph /  14.5 km/h 9.0 mph /  14.5 km/h 29 % 0.0 in /  0 mm
15:56 14.2 °F /  -9.9 °C -3.6 °F /  -19.8 °C 1017.8 in /  34462.7 hPa WSW 16.7 mph /  26.9 km/h 16.7 mph /  26.9 km/h 29 % 0.0 in /  0 mm
16:01 14.1 °F /  -9.9 °C -3.7 °F /  -19.8 °C 1017.8 in /  34462.7 hPa WSW 9.3 mph /  15 km/h 9.3 mph /  15 km/h 29 % 0.0 in /  0 mm
16:06 14.2 °F /  -9.9 °C -3.6 °F /  -19.8 °C 1016.8 in /  34428.8 hPa WNW 9.3 mph /  15 km/h 9.3 mph /  15 km/h 29 % 0.0 in /  0 mm
16:11 14.3 °F /  -9.8 °C -3.1 °F /  -19.5 °C 1016.8 in /  34428.8 hPa WSW 6.1 mph /  9.8 km/h 6.1 mph /  9.8 km/h 30 % 0.0 in /  0 mm
16:16 14.2 °F /  -9.9 °C -3.2 °F /  -19.6 °C 1016.8 in /  34428.8 hPa South 6.9 mph /  11.1 km/h 6.9 mph /  11.1 km/h 30 % 0.0 in /  0 mm
16:21 14.2 °F /  -9.9 °C -3.6 °F /  -19.8 °C 1016.8 in /  34428.8 hPa WSW 9.3 mph /  15 km/h 9.3 mph /  15 km/h 29 % 0.0 in /  0 mm
16:26 14.2 °F /  -9.9 °C -3.2 °F /  -19.6 °C 1016.8 in /  34428.8 hPa West 7.4 mph /  11.9 km/h 7.4 mph /  11.9 km/h 30 % 0.0 in /  0 mm
16:32 14.2 °F /  -9.9 °C -3.2 °F /  -19.6 °C 1016.8 in /  34428.8 hPa SW 9.3 mph /  15 km/h 9.3 mph /  15 km/h 30 % 0.0 in /  0 mm
16:37 14.2 °F /  -9.9 °C -3.2 °F /  -19.6 °C 1016.8 in /  34428.8 hPa WSW 9.3 mph /  15 km/h 9.3 mph /  15 km/h 30 % 0.0 in /  0 mm
16:42 14.2 °F /  -9.9 °C -3.2 °F /  -19.6 °C 1016.8 in /  34428.8 hPa WNW 5.6 mph /  9 km/h 5.6 mph /  9 km/h 30 % 0.0 in /  0 mm
16:47 14.1 °F /  -9.9 °C -3.2 °F /  -19.6 °C 1016.8 in /  34428.8 hPa WSW 3.7 mph /  6 km/h 3.7 mph /  6 km/h 30 % 0.0 in /  0 mm
16:52 14.0 °F /  -10 °C -3.3 °F /  -19.6 °C 1016.8 in /  34428.8 hPa WNW 4.7 mph /  7.6 km/h 4.7 mph /  7.6 km/h 30 % 0.0 in /  0 mm
16:57 13.8 °F /  -10.1 °C -3.5 °F /  -19.7 °C 1016.8 in /  34428.8 hPa NW 5.6 mph /  9 km/h 5.6 mph /  9 km/h 30 % 0.0 in /  0 mm
17:02 13.6 °F /  -10.2 °C -3.7 °F /  -19.8 °C 1016.8 in /  34428.8 hPa WNW 3.7 mph /  6 km/h 3.7 mph /  6 km/h 30 % 0.0 in /  0 mm
17:07 13.6 °F /  -10.2 °C -3.7 °F /  -19.8 °C 1016.8 in /  34428.8 hPa West 5.8 mph /  9.3 km/h 5.8 mph /  9.3 km/h 30 % 0.0 in /  0 mm
17:12 13.3 °F /  -10.4 °C -3.9 °F /  -19.9 °C 1016.8 in /  34428.8 hPa West 5.6 mph /  9 km/h 5.6 mph /  9 km/h 30 % 0.0 in /  0 mm
17:17 13.0 °F /  -10.6 °C -4.2 °F /  -20.1 °C 1016.8 in /  34428.8 hPa WSW 3.7 mph /  6 km/h 3.7 mph /  6 km/h 30 % 0.0 in /  0 mm
17:22 12.6 °F /  -10.8 °C -4.6 °F /  -20.3 °C 1016.8 in /  34428.8 hPa WSW 3.7 mph /  6 km/h 3.7 mph /  6 km/h 30 % 0.0 in /  0 mm
17:27 12.4 °F /  -10.9 °C -4.7 °F /  -20.4 °C 1016.8 in /  34428.8 hPa West 2.6 mph /  4.2 km/h 2.6 mph /  4.2 km/h 30 % 0.0 in /  0 mm
17:32 12.2 °F /  -11 °C -4.9 °F /  -20.5 °C 1016.8 in /  34428.8 hPa West 3.7 mph /  6 km/h 3.7 mph /  6 km/h 30 % 0.0 in /  0 mm
17:37 12.0 °F /  -11.1 °C -5.1 °F /  -20.6 °C 1017.8 in /  34462.7 hPa WSW 3.7 mph /  6 km/h   30 % 0.0 in /  0 mm
17:42 11.8 °F /  -11.2 °C -5.2 °F /  -20.7 °C 1017.8 in /  34462.7 hPa West 3.7 mph /  6 km/h 3.7 mph /  6 km/h 30 % 0.0 in /  0 mm
17:47 11.5 °F /  -11.4 °C -5.5 °F /  -20.8 °C 1017.8 in /  34462.7 hPa WSW 1.9 mph /  3.1 km/h 1.9 mph /  3.1 km/h 30 % 0.0 in /  0 mm
17:52 11.3 °F /  -11.5 °C -5.7 °F /  -20.9 °C 1017.8 in /  34462.7 hPa WSW 2.6 mph /  4.2 km/h 2.6 mph /  4.2 km/h 30 % 0.0 in /  0 mm
17:57 11.2 °F /  -11.6 °C -5.3 °F /  -20.7 °C 1017.8 in /  34462.7 hPa WSW 3.7 mph /  6 km/h 3.7 mph /  6 km/h 31 % 0.0 in /  0 mm
18:02 11.1 °F /  -11.6 °C -5.4 °F /  -20.8 °C 1017.8 in /  34462.7 hPa West 3.7 mph /  6 km/h 3.7 mph /  6 km/h 31 % 0.0 in /  0 mm
18:07 10.8 °F /  -11.8 °C -5.7 °F /  -20.9 °C 1017.8 in /  34462.7 hPa Calm     31 % 0.0 in /  0 mm
18:12 10.5 °F /  -11.9 °C -5.9 °F /  -21.1 °C 1017.8 in /  34462.7 hPa NNE 3.7 mph /  6 km/h 3.7 mph /  6 km/h 31 % 0.0 in /  0 mm
18:15 4.5 °F /  -15.3 °C -5.8 °F /  -21 °C 1019.9 in /  34533.8 hPa Calm   1.6 mph /  2.6 km/h 47 % 0.0 in /  0 mm
18:17 10.3 °F /  -12.1 °C -6.1 °F /  -21.2 °C 1017.8 in /  34462.7 hPa NNE 3.7 mph /  6 km/h 3.7 mph /  6 km/h 31 % 0.0 in /  0 mm
18:22 10.2 °F /  -12.1 °C -6.2 °F /  -21.2 °C 1017.8 in /  34462.7 hPa NE 3.7 mph /  6 km/h 3.7 mph /  6 km/h 31 % 0.0 in /  0 mm
18:25 4.5 °F /  -15.3 °C -5.6 °F /  -20.9 °C 1019.9 in /  34533.8 hPa WSW 3.2 mph /  5.1 km/h 3.2 mph /  5.1 km/h 48 % 0.0 in /  0 mm
18:27 10.1 °F /  -12.2 °C -6.3 °F /  -21.3 °C 1017.8 in /  34462.7 hPa NW 1.9 mph /  3.1 km/h   31 % 0.0 in /  0 mm
18:32 10.0 °F /  -12.2 °C -6.4 °F /  -21.3 °C 1017.8 in /  34462.7 hPa WNW 2.3 mph /  3.7 km/h   31 % 0.0 in /  0 mm
18:35 4.2 °F /  -15.4 °C -5.8 °F /  -21 °C 1019.9 in /  34533.8 hPa SW 1.6 mph /  2.6 km/h 3.2 mph /  5.1 km/h 48 % 0.0 in /  0 mm
18:37 9.9 °F /  -12.3 °C -6.4 °F /  -21.3 °C 1017.8 in /  34462.7 hPa NNE 3.7 mph /  6 km/h   31 % 0.0 in /  0 mm
18:42 9.9 °F /  -12.3 °C -6.4 °F /  -21.3 °C 1017.8 in /  34462.7 hPa NNE 3.9 mph /  6.3 km/h 3.9 mph /  6.3 km/h 31 % 0.0 in /  0 mm
18:45 4.5 °F /  -15.3 °C -5.6 °F /  -20.9 °C 1019.9 in /  34533.8 hPa Calm   1.6 mph /  2.6 km/h 48 % 0.0 in /  0 mm
18:47 9.7 °F /  -12.4 °C -6.7 °F /  -21.5 °C 1017.8 in /  34462.7 hPa North 3.7 mph /  6 km/h 3.7 mph /  6 km/h 31 % 0.0 in /  0 mm
18:52 9.6 °F /  -12.4 °C -6.7 °F /  -21.5 °C 1017.8 in /  34462.7 hPa NNE 3.7 mph /  6 km/h 3.7 mph /  6 km/h 31 % 0.0 in /  0 mm
18:55 4.2 °F /  -15.4 °C -5.8 °F /  -21 °C 1019.9 in /  34533.8 hPa WSW 1.6 mph /  2.6 km/h 3.2 mph /  5.1 km/h 48 % 0.0 in /  0 mm
18:57 9.6 °F /  -12.4 °C -6.7 °F /  -21.5 °C 1017.8 in /  34462.7 hPa Calm     31 % 0.0 in /  0 mm
19:02 9.4 °F /  -12.6 °C -6.9 °F /  -21.6 °C 1017.8 in /  34462.7 hPa Calm     31 % 0.0 in /  0 mm
19:05 4.0 °F /  -15.6 °C -6.1 °F /  -21.2 °C 1019.9 in /  34533.8 hPa Calm   3.2 mph /  5.1 km/h 48 % 0.0 in /  0 mm
19:07 9.4 °F /  -12.6 °C -6.9 °F /  -21.6 °C 1018.8 in /  34496.6 hPa NW 1.9 mph /  3.1 km/h 1.9 mph /  3.1 km/h 31 % 0.0 in /  0 mm
19:12 9.4 °F /  -12.6 °C -6.5 °F /  -21.4 °C 1018.8 in /  34496.6 hPa NW 1.9 mph /  3.1 km/h   32 % 0.0 in /  0 mm
19:15 4.1 °F /  -15.5 °C -5.9 °F /  -21.1 °C 1019.9 in /  34533.8 hPa West 1.6 mph /  2.6 km/h 3.2 mph /  5.1 km/h 48 % 0.0 in /  0 mm
19:17 9.4 °F /  -12.6 °C -6.5 °F /  -21.4 °C 1018.8 in /  34496.6 hPa NW 1.9 mph /  3.1 km/h   32 % 0.0 in /  0 mm
19:22 9.2 °F /  -12.7 °C -6.7 °F /  -21.5 °C 1018.8 in /  34496.6 hPa Calm     32 % 0.0 in /  0 mm
19:25 4.2 °F /  -15.4 °C -5.8 °F /  -21 °C 1019.9 in /  34533.8 hPa Calm   3.2 mph /  5.1 km/h 48 % 0.0 in /  0 mm
19:27 9.1 °F /  -12.7 °C -6.8 °F /  -21.6 °C 1018.8 in /  34496.6 hPa NW 1.9 mph /  3.1 km/h   32 % 0.0 in /  0 mm
19:32 9.1 °F /  -12.7 °C -6.8 °F /  -21.6 °C 1018.8 in /  34496.6 hPa WNW 1.9 mph /  3.1 km/h 1.9 mph /  3.1 km/h 32 % 0.0 in /  0 mm
19:35 4.3 °F /  -15.4 °C -5.8 °F /  -21 °C 1019.9 in /  34533.8 hPa Calm   1.6 mph /  2.6 km/h 48 % 0.0 in /  0 mm
19:37 9.1 °F /  -12.7 °C -6.8 °F /  -21.6 °C 1018.8 in /  34496.6 hPa NNE 1.9 mph /  3.1 km/h   32 % 0.0 in /  0 mm
19:42 9.0 °F /  -12.8 °C -6.8 °F /  -21.6 °C 1018.8 in /  34496.6 hPa Calm     32 % 0.0 in /  0 mm
19:45 4.4 °F /  -15.3 °C -5.7 °F /  -20.9 °C 1018.8 in /  34496.6 hPa Calm   1.6 mph /  2.6 km/h 48 % 0.0 in /  0 mm
19:47 8.8 °F /  -12.9 °C -6.6 °F /  -21.4 °C 1018.8 in /  34496.6 hPa Calm     33 % 0.0 in /  0 mm
19:52 8.7 °F /  -12.9 °C -6.7 °F /  -21.5 °C 1018.8 in /  34496.6 hPa North 1.9 mph /  3.1 km/h   33 % 0.0 in /  0 mm
19:55 4.6 °F /  -15.2 °C -5.5 °F /  -20.8 °C 1019.9 in /  34533.8 hPa WNW 1.6 mph /  2.6 km/h 3.2 mph /  5.1 km/h 48 % 0.0 in /  0 mm
19:57 8.7 °F /  -12.9 °C -6.7 °F /  -21.5 °C 1018.8 in /  34496.6 hPa NW 1.9 mph /  3.1 km/h 1.9 mph /  3.1 km/h 33 % 0.0 in /  0 mm
20:02 8.7 °F /  -12.9 °C -6.7 °F /  -21.5 °C 1018.8 in /  34496.6 hPa WNW 3.7 mph /  6 km/h 3.7 mph /  6 km/h 33 % 0.0 in /  0 mm
20:05 4.1 °F /  -15.5 °C -5.9 °F /  -21.1 °C 1019.9 in /  34533.8 hPa Calm   1.6 mph /  2.6 km/h 48 % 0.0 in /  0 mm
20:07 8.5 °F /  -13.1 °C -6.9 °F /  -21.6 °C 1019.9 in /  34533.8 hPa WNW 3.7 mph /  6 km/h 3.7 mph /  6 km/h 33 % 0.0 in /  0 mm
20:12 8.5 °F /  -13.1 °C -6.9 °F /  -21.6 °C 1019.9 in /  34533.8 hPa WNW 3.7 mph /  6 km/h 3.7 mph /  6 km/h 33 % 0.0 in /  0 mm
20:15 3.6 °F /  -15.8 °C -6.1 °F /  -21.2 °C 1018.8 in /  34496.6 hPa NNE 3.2 mph /  5.1 km/h 4.8 mph /  7.7 km/h 49 % 0.0 in /  0 mm
20:17 8.5 °F /  -13.1 °C -6.9 °F /  -21.6 °C 1019.9 in /  34533.8 hPa Calm     33 % 0.0 in /  0 mm
20:22 8.4 °F /  -13.1 °C -6.9 °F /  -21.6 °C 1019.9 in /  34533.8 hPa NNE 3.9 mph /  6.3 km/h 3.9 mph /  6.3 km/h 33 % 0.0 in /  0 mm
20:27 8.2 °F /  -13.2 °C -6.8 °F /  -21.6 °C 1019.9 in /  34533.8 hPa NE 3.7 mph /  6 km/h   34 % 0.0 in /  0 mm
20:32 8.1 °F /  -13.3 °C -6.8 °F /  -21.6 °C 1019.9 in /  34533.8 hPa WNW 2.3 mph /  3.7 km/h 2.3 mph /  3.7 km/h 34 % 0.0 in /  0 mm
20:35 3.6 °F /  -15.8 °C -6.1 °F /  -21.2 °C 1019.9 in /  34533.8 hPa Calm   1.6 mph /  2.6 km/h 49 % 0.0 in /  0 mm
20:37 7.6 °F /  -13.6 °C -7.3 °F /  -21.8 °C 1019.9 in /  34533.8 hPa WSW 3.7 mph /  6 km/h 3.7 mph /  6 km/h 34 % 0.0 in /  0 mm
20:42 7.5 °F /  -13.6 °C -7.4 °F /  -21.9 °C 1019.9 in /  34533.8 hPa WSW 1.9 mph /  3.1 km/h 1.9 mph /  3.1 km/h 34 % 0.0 in /  0 mm
20:45 3.7 °F /  -15.7 °C -5.8 °F /  -21 °C 1019.9 in /  34533.8 hPa North 1.6 mph /  2.6 km/h 4.8 mph /  7.7 km/h 50 % 0.0 in /  0 mm
20:47 7.7 °F /  -13.5 °C -7.2 °F /  -21.8 °C 1019.9 in /  34533.8 hPa WNW 2.6 mph /  4.2 km/h 2.6 mph /  4.2 km/h 34 % 0.0 in /  0 mm
20:52 7.7 °F /  -13.5 °C -7.2 °F /  -21.8 °C 1019.9 in /  34533.8 hPa WNW 2.3 mph /  3.7 km/h 2.3 mph /  3.7 km/h 34 % 0.0 in /  0 mm
20:55 3.2 °F /  -16 °C -6.2 °F /  -21.2 °C 1019.9 in /  34533.8 hPa West 3.2 mph /  5.1 km/h 4.8 mph /  7.7 km/h 50 % 0.0 in /  0 mm
20:57 7.7 °F /  -13.5 °C -7.2 °F /  -21.8 °C 1019.9 in /  34533.8 hPa WNW 2.6 mph /  4.2 km/h 2.6 mph /  4.2 km/h 34 % 0.0 in /  0 mm
21:03 7.7 °F /  -13.5 °C -7.2 °F /  -21.8 °C 1019.9 in /  34533.8 hPa West 2.3 mph /  3.7 km/h 2.3 mph /  3.7 km/h 34 % 0.0 in /  0 mm
21:05 3.1 °F /  -16.1 °C -6.3 °F /  -21.3 °C 1019.9 in /  34533.8 hPa WSW 1.6 mph /  2.6 km/h 4.8 mph /  7.7 km/h 50 % 0.0 in /  0 mm
21:07 7.5 °F /  -13.6 °C -7.0 °F /  -21.7 °C 1018.8 in /  34496.6 hPa ESE 7.4 mph /  11.9 km/h 7.4 mph /  11.9 km/h 35 % 0.0 in /  0 mm
21:12 7.0 °F /  -13.9 °C -7.4 °F /  -21.9 °C 1018.8 in /  34496.6 hPa ENE 5.8 mph /  9.3 km/h 5.8 mph /  9.3 km/h 35 % 0.0 in /  0 mm
21:15 3.5 °F /  -15.8 °C -5.9 °F /  -21.1 °C 1019.9 in /  34533.8 hPa WSW 3.2 mph /  5.1 km/h 4.8 mph /  7.7 km/h 50 % 0.0 in /  0 mm
21:17 7.1 °F /  -13.8 °C -7.0 °F /  -21.7 °C 1018.8 in /  34496.6 hPa ENE 3.7 mph /  6 km/h 3.7 mph /  6 km/h 36 % 0.0 in /  0 mm
21:23 7.0 °F /  -13.9 °C -7.1 °F /  -21.7 °C 1019.9 in /  34533.8 hPa NNE 2.3 mph /  3.7 km/h 2.3 mph /  3.7 km/h 36 % 0.0 in /  0 mm
21:27 6.9 °F /  -13.9 °C -6.8 °F /  -21.6 °C 1019.9 in /  34533.8 hPa SSW 3.7 mph /  6 km/h 3.7 mph /  6 km/h 37 % 0.0 in /  0 mm
21:33 6.6 °F /  -14.1 °C -6.7 °F /  -21.5 °C 1019.9 in /  34533.8 hPa Calm     38 % 0.0 in /  0 mm
21:35 3.8 °F /  -15.7 °C -5.7 °F /  -20.9 °C 1019.9 in /  34533.8 hPa WSW 3.2 mph /  5.1 km/h 4.8 mph /  7.7 km/h 50 % 0.0 in /  0 mm
21:43 6.6 °F /  -14.1 °C -6.4 °F /  -21.3 °C 1019.9 in /  34533.8 hPa Calm     39 % 0.0 in /  0 mm
21:44 6.5 °F /  -14.2 °C -6.5 °F /  -21.4 °C 1019.9 in /  34533.8 hPa SSW 2.3 mph /  3.7 km/h   39 % 0.0 in /  0 mm
21:45 4.0 °F /  -15.6 °C -5.2 °F /  -20.7 °C 1019.9 in /  34533.8 hPa WSW 1.6 mph /  2.6 km/h 3.2 mph /  5.1 km/h 51 % 0.0 in /  0 mm
21:54 6.4 °F /  -14.2 °C -6.6 °F /  -21.4 °C 1019.9 in /  34533.8 hPa WSW 2.3 mph /  3.7 km/h   39 % 0.0 in /  0 mm
21:55 4.2 °F /  -15.4 °C -5.3 °F /  -20.7 °C 1019.9 in /  34533.8 hPa WSW 1.6 mph /  2.6 km/h 3.2 mph /  5.1 km/h 50 % 0.0 in /  0 mm
21:59 6.2 °F /  -14.3 °C -6.4 °F /  -21.3 °C 1019.9 in /  34533.8 hPa WSW 2.3 mph /  3.7 km/h 2.3 mph /  3.7 km/h 40 % 0.0 in /  0 mm
22:04 6.2 °F /  -14.3 °C -6.4 °F /  -21.3 °C 1019.9 in /  34533.8 hPa WSW 1.9 mph /  3.1 km/h   40 % 0.0 in /  0 mm
22:05 4.3 °F /  -15.4 °C -4.9 °F /  -20.5 °C 1019.9 in /  34533.8 hPa NW 1.6 mph /  2.6 km/h 1.6 mph /  2.6 km/h 51 % 0.0 in /  0 mm
22:09 6.1 °F /  -14.4 °C -6.2 °F /  -21.2 °C 1019.9 in /  34533.8 hPa Calm     41 % 0.0 in /  0 mm
22:14 6.0 °F /  -14.4 °C -6.3 °F /  -21.3 °C 1019.9 in /  34533.8 hPa WSW 3.7 mph /  6 km/h 3.7 mph /  6 km/h 41 % 0.0 in /  0 mm
22:15 4.6 °F /  -15.2 °C -4.7 °F /  -20.4 °C 1019.9 in /  34533.8 hPa North 1.6 mph /  2.6 km/h 3.2 mph /  5.1 km/h 51 % 0.0 in /  0 mm
22:19 6.0 °F /  -14.4 °C -6.3 °F /  -21.3 °C 1019.9 in /  34533.8 hPa Calm     41 % 0.0 in /  0 mm
22:24 5.9 °F /  -14.5 °C -6.4 °F /  -21.3 °C 1019.9 in /  34533.8 hPa Calm     41 % 0.0 in /  0 mm
22:29 5.7 °F /  -14.6 °C -6.6 °F /  -21.4 °C 1019.9 in /  34533.8 hPa Calm     41 % 0.0 in /  0 mm
22:34 5.7 °F /  -14.6 °C -6.2 °F /  -21.2 °C 1019.9 in /  34533.8 hPa SE 1.9 mph /  3.1 km/h 1.9 mph /  3.1 km/h 42 % 0.0 in /  0 mm
22:35 4.3 °F /  -15.4 °C -4.9 °F /  -20.5 °C 1019.9 in /  34533.8 hPa Calm   3.2 mph /  5.1 km/h 51 % 0.0 in /  0 mm
22:44 5.4 °F /  -14.8 °C -6.5 °F /  -21.4 °C 1019.9 in /  34533.8 hPa SW 3.7 mph /  6 km/h 3.7 mph /  6 km/h 42 % 0.0 in /  0 mm
22:45 4.4 °F /  -15.3 °C -4.9 °F /  -20.5 °C 1019.9 in /  34533.8 hPa Calm   4.8 mph /  7.7 km/h 51 % 0.0 in /  0 mm
22:49 5.2 °F /  -14.9 °C -7.0 °F /  -21.7 °C 1019.9 in /  34533.8 hPa SW 3.7 mph /  6 km/h 3.7 mph /  6 km/h 41 % 0.0 in /  0 mm
22:54 5.2 °F /  -14.9 °C -6.7 °F /  -21.5 °C 1019.9 in /  34533.8 hPa ENE 2.6 mph /  4.2 km/h   42 % 0.0 in /  0 mm
22:55 4.4 °F /  -15.3 °C -4.9 °F /  -20.5 °C 1019.9 in /  34533.8 hPa NW 1.6 mph /  2.6 km/h 3.2 mph /  5.1 km/h 51 % 0.0 in /  0 mm
22:59 5.2 °F /  -14.9 °C -6.7 °F /  -21.5 °C 1019.9 in /  34533.8 hPa West 2.6 mph /  4.2 km/h 2.6 mph /  4.2 km/h 42 % 0.0 in /  0 mm
23:04 5.2 °F /  -14.9 °C -6.4 °F /  -21.3 °C 1019.9 in /  34533.8 hPa SSE 3.7 mph /  6 km/h 3.7 mph /  6 km/h 43 % 0.0 in /  0 mm
23:05 4.4 °F /  -15.3 °C -4.9 °F /  -20.5 °C 1019.9 in /  34533.8 hPa Calm   3.2 mph /  5.1 km/h 51 % 0.0 in /  0 mm
23:09 5.2 °F /  -14.9 °C -6.1 °F /  -21.2 °C 1019.9 in /  34533.8 hPa Calm     44 % 0.0 in /  0 mm
23:14 5.2 °F /  -14.9 °C -6.1 °F /  -21.2 °C 1019.9 in /  34533.8 hPa Calm     44 % 0.0 in /  0 mm
23:15 4.4 °F /  -15.3 °C -4.9 °F /  -20.5 °C 1018.8 in /  34496.6 hPa NNE 1.6 mph /  2.6 km/h 4.8 mph /  7.7 km/h 51 % 0.0 in /  0 mm
23:19 5.2 °F /  -14.9 °C -6.4 °F /  -21.3 °C 1019.9 in /  34533.8 hPa WNW 2.3 mph /  3.7 km/h 2.3 mph /  3.7 km/h 43 % 0.0 in /  0 mm
23:24 5.1 °F /  -14.9 °C -6.2 °F /  -21.2 °C 1019.9 in /  34533.8 hPa NNE 2.3 mph /  3.7 km/h 2.3 mph /  3.7 km/h 44 % 0.0 in /  0 mm
23:25 4.3 °F /  -15.4 °C -4.9 °F /  -20.5 °C 1019.9 in /  34533.8 hPa NNE 3.2 mph /  5.1 km/h 3.2 mph /  5.1 km/h 51 % 0.0 in /  0 mm
23:29 5.1 °F /  -14.9 °C -5.9 °F /  -21.1 °C 1019.9 in /  34533.8 hPa Calm     45 % 0.0 in /  0 mm
23:34 5.0 °F /  -15 °C -5.9 °F /  -21.1 °C 1019.9 in /  34533.8 hPa South 1.9 mph /  3.1 km/h   45 % 0.0 in /  0 mm
23:35 4.1 °F /  -15.5 °C -5.2 °F /  -20.7 °C 1019.9 in /  34533.8 hPa Calm   1.6 mph /  2.6 km/h 51 % 0.0 in /  0 mm
23:39 4.9 °F /  -15.1 °C -6.1 °F /  -21.2 °C 1019.9 in /  34533.8 hPa SW 2.3 mph /  3.7 km/h 2.3 mph /  3.7 km/h 45 % 0.0 in /  0 mm
23:44 4.6 °F /  -15.2 °C -6.1 °F /  -21.2 °C 1019.9 in /  34533.8 hPa NNE 2.6 mph /  4.2 km/h   46 % 0.0 in /  0 mm
23:45 4.0 °F /  -15.6 °C -5.2 °F /  -20.7 °C 1019.9 in /  34533.8 hPa WNW 1.6 mph /  2.6 km/h 1.6 mph /  2.6 km/h 51 % 0.0 in /  0 mm
23:49 4.5 °F /  -15.3 °C -6.1 °F /  -21.2 °C 1019.9 in /  34533.8 hPa North 3.7 mph /  6 km/h 3.7 mph /  6 km/h 46 % 0.0 in /  0 mm
23:54 4.5 °F /  -15.3 °C -5.8 °F /  -21 °C 1019.9 in /  34533.8 hPa North 1.9 mph /  3.1 km/h 1.9 mph /  3.1 km/h 47 % 0.0 in /  0 mm
23:55 3.8 °F /  -15.7 °C -5.4 °F /  -20.8 °C 1019.9 in /  34533.8 hPa WNW 1.6 mph /  2.6 km/h 1.6 mph /  2.6 km/h 51 % 0.0 in /  0 mm
23:59 4.5 °F /  -15.3 °C -5.8 °F /  -21 °C 1019.9 in /  34533.8 hPa NE 1.9 mph /  3.1 km/h 1.9 mph /  3.1 km/h 47 % 0.0 in /  0 mm
Meteo Sesrovires
Elogis d' Weather Underground - 3.75 mb

Guio original per  Jim McMurry - jmcmurry@mwt.net Adaptat per a la plantilla per  Wim van der Kuil - Leuven-Template.eu

Trobareu la nostra informacio del temps tambe a:

Weather Underground

AWEKAS